createdAt,value
2022-09-20T00:01:08.415Z,72.96
2022-09-20T00:03:49.665Z,72.87
2022-09-20T00:06:38.511Z,72.82
2022-09-20T00:09:10.056Z,72.98
2022-09-20T00:11:41.497Z,73.04
2022-09-20T00:14:23.182Z,72.87
2022-09-20T00:16:52.132Z,72.80
2022-09-20T00:19:31.330Z,72.80
2022-09-20T00:22:11.073Z,73.01
2022-09-20T00:24:59.008Z,72.98
2022-09-20T00:27:49.388Z,73.00
2022-09-20T00:30:18.267Z,73.21
2022-09-20T00:33:06.191Z,73.28
2022-09-20T00:35:55.047Z,73.20
2022-09-20T00:38:44.012Z,73.22
2022-09-20T00:41:33.895Z,73.18
2022-09-20T00:44:42.528Z,73.06
2022-09-20T00:47:39.675Z,73.02
2022-09-20T00:50:32.627Z,72.94
2022-09-20T00:53:25.898Z,73.02
2022-09-20T00:56:19.920Z,73.03
2022-09-20T00:59:15.429Z,72.97
2022-09-20T01:02:02.457Z,72.92
2022-09-20T01:04:51.623Z,73.01
2022-09-20T01:07:43.707Z,72.95
2022-09-20T01:10:22.578Z,72.91
2022-09-20T01:12:54.905Z,73.12
2022-09-20T01:15:46.878Z,73.05
2022-09-20T01:18:38.916Z,73.15
2022-09-20T01:21:29.172Z,73.28
2022-09-20T01:24:23.073Z,73.08
2022-09-20T01:27:22.202Z,73.14
2022-09-20T01:30:07.619Z,73.21
2022-09-20T01:33:05.639Z,73.04
2022-09-20T01:35:59.532Z,73.07
2022-09-20T01:39:05.696Z,73.11
2022-09-20T01:41:55.557Z,73.23
2022-09-20T01:44:56.529Z,73.31
2022-09-20T01:47:59.207Z,73.20
2022-09-20T01:51:09.940Z,73.36
2022-09-20T01:54:29.304Z,73.33
2022-09-20T01:57:35.266Z,73.21
2022-09-20T02:00:19.770Z,73.13
2022-09-20T02:03:23.667Z,73.14
2022-09-20T02:06:22.845Z,73.05
2022-09-20T02:09:33.429Z,73.07
2022-09-20T02:12:41.261Z,73.08
2022-09-20T02:15:40.889Z,73.20
2022-09-20T02:18:42.142Z,73.28
2022-09-20T02:21:38.553Z,73.30
2022-09-20T02:24:20.006Z,73.22
2022-09-20T02:27:23.792Z,73.22
2022-09-20T02:30:22.374Z,73.38
2022-09-20T02:33:39.909Z,73.31
2022-09-20T02:36:30.757Z,73.18
2022-09-20T02:39:26.994Z,73.11
2022-09-20T02:42:17.208Z,73.31
2022-09-20T02:45:04.462Z,73.37
2022-09-20T02:47:44.433Z,73.25
2022-09-20T02:50:42.502Z,73.33
2022-09-20T02:53:33.051Z,73.43
2022-09-20T02:56:29.746Z,73.43
2022-09-20T02:59:29.380Z,73.42
2022-09-20T03:02:26.344Z,73.39
2022-09-20T03:05:23.094Z,73.40
2022-09-20T03:08:23.438Z,73.45
2022-09-20T03:11:22.266Z,73.28
2022-09-20T03:14:22.489Z,73.37
2022-09-20T03:17:23.302Z,73.36
2022-09-20T03:20:30.993Z,73.52
2022-09-20T03:23:38.127Z,73.38
2022-09-20T03:26:43.207Z,73.51
2022-09-20T03:29:48.579Z,73.47
2022-09-20T03:32:52.439Z,73.34
2022-09-20T03:35:58.916Z,73.38
2022-09-20T03:39:01.925Z,73.43
2022-09-20T03:42:00.183Z,73.34
2022-09-20T03:45:30.770Z,73.49
2022-09-20T03:48:32.345Z,73.41
2022-09-20T03:51:33.874Z,73.52
2022-09-20T03:54:34.287Z,73.33
2022-09-20T03:57:38.454Z,73.20
2022-09-20T04:00:41.524Z,73.40
2022-09-20T04:03:45.458Z,73.40
2022-09-20T04:06:58.694Z,73.59
2022-09-20T04:10:07.313Z,73.35
2022-09-20T04:13:00.268Z,73.26
2022-09-20T04:16:04.012Z,73.39
2022-09-20T04:18:58.327Z,73.57
2022-09-20T04:21:53.285Z,73.59
2022-09-20T04:24:35.637Z,73.45
2022-09-20T04:27:15.478Z,73.43
2022-09-20T04:30:10.885Z,73.55
2022-09-20T04:33:08.753Z,73.38
2022-09-20T04:36:28.129Z,73.55
2022-09-20T04:39:25.751Z,73.44
2022-09-20T04:42:51.299Z,73.67
2022-09-20T04:46:03.156Z,73.76
2022-09-20T04:49:18.591Z,73.58
2022-09-20T04:52:45.553Z,73.33
2022-09-20T04:55:48.499Z,73.51
2022-09-20T04:58:44.217Z,73.54
2022-09-20T05:02:08.480Z,73.35
2022-09-20T05:05:16.411Z,73.56
2022-09-20T05:08:34.255Z,73.71
2022-09-20T05:11:48.515Z,73.64
2022-09-20T05:15:11.566Z,73.68
2022-09-20T05:18:06.293Z,73.72
2022-09-20T05:20:58.949Z,73.52
2022-09-20T05:24:09.559Z,73.57
2022-09-20T05:27:06.534Z,73.63
2022-09-20T05:29:51.345Z,73.68
2022-09-20T05:32:35.488Z,73.59
2022-09-20T05:35:15.218Z,73.69
2022-09-20T05:37:52.076Z,73.64
2022-09-20T05:41:03.178Z,73.78
2022-09-20T05:43:38.114Z,73.61
2022-09-20T05:46:33.748Z,73.65
2022-09-20T05:49:12.586Z,73.85
2022-09-20T05:52:09.784Z,73.71
2022-09-20T05:55:20.255Z,73.87
2022-09-20T05:58:16.291Z,73.90
2022-09-20T06:01:12.812Z,73.82
2022-09-20T06:04:12.779Z,73.84
2022-09-20T06:07:13.425Z,73.77
2022-09-20T06:10:31.106Z,73.86
2022-09-20T06:13:44.353Z,73.61
2022-09-20T06:16:28.267Z,73.65
2022-09-20T06:19:28.871Z,73.63
2022-09-20T06:22:07.581Z,73.75
2022-09-20T06:25:02.679Z,73.78
2022-09-20T06:27:55.949Z,73.71
2022-09-20T06:30:47.616Z,73.82
2022-09-20T06:33:44.075Z,73.89
2022-09-20T06:36:53.336Z,73.88
2022-09-20T06:39:52.714Z,73.94
2022-09-20T06:42:43.935Z,73.85
2022-09-20T06:45:17.592Z,74.01
2022-09-20T06:47:48.416Z,73.94
2022-09-20T06:50:27.656Z,73.82
2022-09-20T06:53:05.031Z,73.84
2022-09-20T06:55:40.550Z,73.73
2022-09-20T06:58:29.757Z,73.77
2022-09-20T07:01:02.297Z,73.83
2022-09-20T07:03:42.187Z,74.08
2022-09-20T07:06:19.420Z,73.94
2022-09-20T07:08:59.524Z,73.86
2022-09-20T07:11:48.465Z,73.77
2022-09-20T07:14:28.096Z,73.61
2022-09-20T07:16:56.611Z,73.70
2022-09-20T07:19:28.229Z,73.81
2022-09-20T07:22:09.080Z,73.85
2022-09-20T07:25:01.938Z,73.99
2022-09-20T07:27:51.097Z,73.81
2022-09-20T07:30:24.246Z,73.74
2022-09-20T07:32:53.244Z,73.82
2022-09-20T07:35:32.476Z,73.77
2022-09-20T07:38:12.200Z,73.76
2022-09-20T07:40:55.709Z,73.92
2022-09-20T07:43:45.078Z,73.83
2022-09-20T07:46:35.620Z,73.47
2022-09-20T07:49:13.213Z,73.87
2022-09-20T07:52:04.646Z,73.88
2022-09-20T07:54:53.189Z,73.68
2022-09-20T07:57:42.238Z,73.80
2022-09-20T08:00:23.925Z,73.67
2022-09-20T08:03:12.888Z,73.60
2022-09-20T08:06:01.669Z,73.68
2022-09-20T08:08:51.357Z,73.57
2022-09-20T08:11:42.216Z,73.63
2022-09-20T08:14:31.128Z,73.73
2022-09-20T08:17:20.235Z,73.72
2022-09-20T08:20:10.418Z,73.97
2022-09-20T08:23:12.647Z,73.99
2022-09-20T08:26:02.436Z,73.85
2022-09-20T08:28:45.115Z,73.94
2022-09-20T08:31:26.527Z,73.93
2022-09-20T08:34:10.983Z,73.92
2022-09-20T08:37:02.200Z,73.84
2022-09-20T08:42:44.849Z,74.02
2022-09-20T08:45:41.118Z,74.12
2022-09-20T08:48:26.624Z,74.23
2022-09-20T08:51:22.595Z,74.22
2022-09-20T08:54:15.684Z,74.13
2022-09-20T08:56:55.384Z,74.05
2022-09-20T08:59:35.007Z,73.93
2022-09-20T09:02:17.036Z,74.03
2022-09-20T09:04:58.757Z,73.92
2022-09-20T09:07:47.144Z,74.06
2022-09-20T09:10:45.407Z,74.09
2022-09-20T09:13:43.706Z,73.96
2022-09-20T09:16:30.211Z,73.79
2022-09-20T09:19:33.521Z,73.68
2022-09-20T09:22:28.674Z,73.61
2022-09-20T09:25:21.817Z,73.80
2022-09-20T09:27:53.029Z,73.47
2022-09-20T09:30:43.729Z,73.51
2022-09-20T09:33:34.336Z,73.62
2022-09-20T09:36:25.660Z,73.86
2022-09-20T09:39:16.574Z,74.00
2022-09-20T09:42:23.193Z,73.81
2022-09-20T09:45:26.290Z,73.82
2022-09-20T09:48:23.191Z,74.07
2022-09-20T09:51:14.793Z,74.10
2022-09-20T09:54:05.306Z,73.96
2022-09-20T09:57:07.947Z,73.79
2022-09-20T09:59:54.395Z,73.51
2022-09-20T10:02:56.514Z,73.52
2022-09-20T10:05:59.566Z,73.69
2022-09-20T10:09:01.675Z,73.45
2022-09-20T10:11:43.974Z,73.12
2022-09-20T10:14:25.774Z,73.57
2022-09-20T10:17:33.678Z,73.51
2022-09-20T10:20:37.763Z,73.88
2022-09-20T10:23:51.416Z,74.10
2022-09-20T10:26:35.676Z,73.91
2022-09-20T10:29:35.666Z,73.59
2022-09-20T10:32:27.853Z,73.31
2022-09-20T10:35:20.080Z,73.33
2022-09-20T10:38:16.061Z,73.45
2022-09-20T10:41:21.760Z,73.18
2022-09-20T10:44:22.787Z,73.23
2022-09-20T10:47:17.530Z,73.21
2022-09-20T10:50:00.342Z,73.36
2022-09-20T10:53:03.778Z,73.52
2022-09-20T10:56:03.023Z,73.64
2022-09-20T10:59:02.123Z,73.68
2022-09-20T11:01:47.013Z,73.56
2022-09-20T11:04:53.521Z,73.41
2022-09-20T11:07:49.970Z,73.30
2022-09-20T11:10:45.959Z,73.43
2022-09-20T11:13:33.778Z,73.10
2022-09-20T11:16:17.058Z,73.03
2022-09-20T11:18:55.239Z,73.01
2022-09-20T11:21:38.341Z,72.75
2022-09-20T11:24:32.436Z,72.53
2022-09-20T11:27:17.990Z,72.30
2022-09-20T11:29:57.641Z,73.07
2022-09-20T11:32:53.117Z,73.56
2022-09-20T11:35:37.278Z,73.10
2022-09-20T11:38:22.668Z,72.57
2022-09-20T11:41:06.158Z,72.54
2022-09-20T11:43:38.255Z,72.67
2022-09-20T11:46:31.002Z,72.19
2022-09-20T11:49:09.450Z,72.16
2022-09-20T11:52:16.735Z,72.12
2022-09-20T11:55:41.239Z,71.76
2022-09-20T11:58:31.112Z,71.84
2022-09-20T12:01:15.746Z,72.14
2022-09-20T12:04:00.259Z,72.36
2022-09-20T12:24:29.484Z,70.96
2022-09-20T12:27:42.369Z,70.71
2022-09-20T12:30:33.469Z,70.74
2022-09-20T12:33:22.048Z,70.84
2022-09-20T12:36:18.212Z,70.83
2022-09-20T12:39:23.306Z,70.93
2022-09-20T12:42:28.747Z,70.60
2022-09-20T12:45:18.666Z,70.87
2022-09-20T12:48:19.435Z,70.94
2022-09-20T12:51:42.784Z,70.88
2022-09-20T12:54:33.877Z,70.68
2022-09-20T12:57:31.854Z,70.86
2022-09-20T13:00:35.771Z,70.65
2022-09-20T13:03:31.193Z,70.53
2022-09-20T13:06:25.012Z,70.39
2022-09-20T13:09:15.553Z,70.36
2022-09-20T13:12:02.488Z,70.48
2022-09-20T13:14:45.613Z,70.50
2022-09-20T13:17:30.476Z,70.39
2022-09-20T13:20:00.382Z,69.81
2022-09-20T13:22:57.097Z,69.78
2022-09-20T13:25:49.999Z,69.66
2022-09-20T13:28:30.016Z,69.71
2022-09-20T13:31:30.849Z,69.44
2022-09-20T13:34:23.821Z,69.60
2022-09-20T13:37:03.689Z,69.68
2022-09-20T13:39:36.830Z,69.50
2022-09-20T13:42:29.191Z,69.40
2022-09-20T13:45:14.395Z,69.45
2022-09-20T13:47:57.517Z,69.37
2022-09-20T13:50:40.969Z,69.38
2022-09-20T13:53:46.318Z,69.12
2022-09-20T13:56:21.348Z,69.35
2022-09-20T13:59:05.352Z,69.16
2022-09-20T14:01:43.858Z,69.25
2022-09-20T14:04:27.535Z,69.12
2022-09-20T14:07:03.103Z,69.26
2022-09-20T14:09:42.297Z,69.26
2022-09-20T14:12:33.503Z,69.05
2022-09-20T14:15:16.584Z,68.95
2022-09-20T14:17:57.141Z,68.72
2022-09-20T14:20:37.386Z,68.71
2022-09-20T14:23:06.286Z,68.35
2022-09-20T14:26:22.229Z,68.52
2022-09-20T14:29:30.622Z,68.32
2022-09-20T14:32:24.984Z,68.28
2022-09-20T14:35:04.444Z,68.41
2022-09-20T14:37:56.477Z,68.41
2022-09-20T14:40:30.817Z,68.42
2022-09-20T14:43:25.188Z,68.31
2022-09-20T14:46:17.201Z,68.37
2022-09-20T14:49:33.304Z,68.29
2022-09-20T14:52:38.901Z,68.20
2022-09-20T14:55:27.899Z,68.17
2022-09-20T14:58:17.697Z,68.22
2022-09-20T15:01:22.996Z,68.31
2022-09-20T15:04:09.093Z,68.34
2022-09-20T15:07:02.247Z,68.40
2022-09-20T15:09:50.855Z,68.12
2022-09-20T15:12:39.876Z,68.20
2022-09-20T15:15:19.713Z,68.12
2022-09-20T15:17:58.996Z,68.20
2022-09-20T15:20:31.043Z,68.46
2022-09-20T15:23:04.004Z,68.33
2022-09-20T15:25:33.202Z,68.08
2022-09-20T15:28:07.289Z,68.01
2022-09-20T15:30:36.003Z,68.07
2022-09-20T15:33:16.529Z,68.16
2022-09-20T15:35:49.232Z,68.31
2022-09-20T15:38:19.189Z,68.25
2022-09-20T15:40:50.345Z,68.32
2022-09-20T15:43:31.226Z,68.27
2022-09-20T15:46:16.299Z,68.61
2022-09-20T15:48:44.902Z,68.45
2022-09-20T15:51:15.145Z,68.39
2022-09-20T15:53:45.513Z,68.49
2022-09-20T15:56:20.630Z,68.63
2022-09-20T15:58:51.083Z,68.40
2022-09-20T16:01:36.422Z,68.21
2022-09-20T16:04:26.739Z,68.28
2022-09-20T16:07:17.240Z,68.11
2022-09-20T16:09:58.708Z,68.13
2022-09-20T16:12:27.634Z,68.33
2022-09-20T16:15:07.516Z,68.32
2022-09-20T16:18:12.836Z,68.23
2022-09-20T16:21:10.300Z,68.06
2022-09-20T16:23:40.030Z,68.29
2022-09-20T16:26:15.161Z,68.14
2022-09-20T16:29:07.128Z,68.34
2022-09-20T16:31:48.494Z,68.65
2022-09-20T16:34:19.332Z,68.50
2022-09-20T16:36:50.659Z,68.54
2022-09-20T16:39:27.263Z,68.56
2022-09-20T16:42:00.605Z,68.19
2022-09-20T16:44:35.170Z,68.32
2022-09-20T16:47:07.397Z,68.33
2022-09-20T16:49:44.800Z,68.01
2022-09-20T16:52:26.111Z,68.49
2022-09-20T16:54:57.345Z,68.65
2022-09-20T16:57:26.507Z,68.59
2022-09-20T16:59:55.699Z,68.68
2022-09-20T17:02:24.533Z,68.78
2022-09-20T17:04:53.673Z,68.34
2022-09-20T17:07:43.377Z,68.23
2022-09-20T17:10:32.850Z,68.30
2022-09-20T17:13:22.009Z,68.40
2022-09-20T17:16:03.233Z,68.73
2022-09-20T17:18:56.836Z,68.57
2022-09-20T17:21:48.786Z,68.40
2022-09-20T17:24:19.237Z,68.66
2022-09-20T17:26:53.561Z,68.60
2022-09-20T17:29:25.404Z,68.30
2022-09-20T17:31:59.027Z,68.47
2022-09-20T17:34:48.892Z,68.72
2022-09-20T17:37:37.734Z,68.46
2022-09-20T17:40:09.944Z,68.73
2022-09-20T17:42:38.836Z,68.44
2022-09-20T17:45:11.576Z,68.45
2022-09-20T17:48:00.422Z,68.29
2022-09-20T17:50:31.428Z,68.37
2022-09-20T17:53:03.460Z,68.71
2022-09-20T17:55:34.810Z,68.49
2022-09-20T17:58:08.885Z,68.68
2022-09-20T18:00:40.202Z,68.77
2022-09-20T18:03:09.066Z,68.79
2022-09-20T18:05:58.664Z,68.83
2022-09-20T18:08:27.499Z,69.11
2022-09-20T18:11:18.366Z,69.12
2022-09-20T18:14:00.971Z,69.00
2022-09-20T18:16:52.852Z,68.94
2022-09-20T18:19:33.228Z,69.16
2022-09-20T18:22:22.772Z,69.11
2022-09-20T18:24:51.589Z,69.15
2022-09-20T18:27:20.184Z,68.75
2022-09-20T18:30:11.497Z,68.63
2022-09-20T18:32:52.336Z,68.77
2022-09-20T18:35:22.194Z,68.65
2022-09-20T18:37:52.352Z,68.51
2022-09-20T18:40:23.731Z,68.64
2022-09-20T18:43:13.341Z,68.81
2022-09-20T18:45:53.911Z,68.90
2022-09-20T18:48:43.923Z,69.01
2022-09-20T18:51:39.209Z,68.93
2022-09-20T18:54:19.896Z,68.81
2022-09-20T18:57:10.858Z,68.83
2022-09-20T19:00:04.031Z,68.72
2022-09-20T19:03:09.999Z,68.71
2022-09-20T19:06:07.661Z,68.76
2022-09-20T19:09:01.025Z,68.93
2022-09-20T19:11:38.596Z,68.94
2022-09-20T19:14:21.922Z,68.90
2022-09-20T19:17:02.026Z,69.11
2022-09-20T19:19:59.951Z,69.05
2022-09-20T19:23:00.301Z,68.96
2022-09-20T19:25:40.124Z,68.96
2022-09-20T19:28:24.477Z,69.21
2022-09-20T19:30:57.191Z,69.36
2022-09-20T19:33:27.589Z,69.47
2022-09-20T19:35:59.015Z,69.71
2022-09-20T19:38:38.177Z,69.78
2022-09-20T19:41:26.857Z,69.58
2022-09-20T19:44:17.769Z,69.88
2022-09-20T19:47:03.187Z,69.85
2022-09-20T19:49:41.823Z,69.69
2022-09-20T19:52:12.470Z,69.83
2022-09-20T19:54:46.595Z,69.87
2022-09-20T19:57:41.985Z,69.94
2022-09-20T20:00:31.664Z,69.91
2022-09-20T20:03:25.542Z,69.89
2022-09-20T20:06:07.839Z,69.66
2022-09-20T20:08:42.618Z,69.71
2022-09-20T20:11:35.387Z,69.79
2022-09-20T20:14:35.144Z,69.82
2022-09-20T20:17:27.518Z,69.77
2022-09-20T20:20:29.991Z,69.62
2022-09-20T20:23:45.108Z,69.70
2022-09-20T20:26:26.592Z,69.71
2022-09-20T20:29:09.666Z,69.71
2022-09-20T20:31:48.948Z,69.80
2022-09-20T20:34:37.585Z,69.58
2022-09-20T20:37:27.828Z,69.61
2022-09-20T20:39:59.134Z,69.62
2022-09-20T20:42:31.249Z,69.35
2022-09-20T20:45:11.235Z,69.57
2022-09-20T20:48:00.927Z,69.66
2022-09-20T20:51:00.296Z,69.71
2022-09-20T20:53:50.934Z,69.73
2022-09-20T20:56:30.866Z,69.86
2022-09-20T20:59:21.075Z,69.72
2022-09-20T21:01:52.280Z,69.65
2022-09-20T21:04:42.109Z,69.66
2022-09-20T21:07:32.606Z,69.75
2022-09-20T21:10:25.508Z,69.89
2022-09-20T21:12:59.970Z,69.93
2022-09-20T21:15:39.282Z,70.02
2022-09-20T21:18:19.157Z,70.01
2022-09-20T21:20:50.297Z,70.18
2022-09-20T21:23:21.331Z,70.24
2022-09-20T21:26:06.751Z,70.13
2022-09-20T21:28:52.213Z,70.29
2022-09-20T21:31:35.832Z,70.30
2022-09-20T21:34:24.883Z,70.28
2022-09-20T21:37:13.735Z,70.34
2022-09-20T21:39:46.100Z,70.46
2022-09-20T21:42:27.818Z,70.53
2022-09-20T21:44:56.639Z,70.51
2022-09-20T21:47:35.300Z,70.43
2022-09-20T21:50:16.819Z,70.45
2022-09-20T21:53:07.631Z,70.45
2022-09-20T21:55:38.562Z,70.35
2022-09-20T21:58:09.222Z,70.34
2022-09-20T22:01:03.550Z,70.53
2022-09-20T22:03:45.662Z,70.40
2022-09-20T22:06:39.353Z,70.47
2022-09-20T22:09:28.393Z,70.46
2022-09-20T22:11:56.967Z,70.40
2022-09-20T22:14:46.066Z,70.56
2022-09-20T22:17:34.458Z,70.58
2022-09-20T22:20:11.033Z,70.57
2022-09-20T22:22:59.911Z,70.56
2022-09-20T22:25:59.764Z,70.61
2022-09-20T22:28:49.774Z,70.56
2022-09-20T22:31:20.976Z,70.60
2022-09-20T22:34:02.552Z,70.64
2022-09-20T22:36:42.219Z,70.66
2022-09-20T22:39:14.887Z,70.72
2022-09-20T22:41:57.631Z,70.59
2022-09-20T22:44:26.220Z,70.59
2022-09-20T22:47:15.138Z,70.70
2022-09-20T22:49:46.419Z,70.69
2022-09-20T22:52:35.102Z,70.77
2022-09-20T22:55:23.896Z,70.89
2022-09-20T22:57:56.020Z,70.96
2022-09-20T23:00:44.239Z,70.90
2022-09-20T23:03:33.345Z,70.88
2022-09-20T23:06:02.947Z,70.83
2022-09-20T23:08:33.046Z,70.95
2022-09-20T23:11:22.839Z,70.98
2022-09-20T23:14:15.360Z,70.99
2022-09-20T23:16:55.448Z,70.90
2022-09-20T23:19:44.526Z,70.93
2022-09-20T23:22:26.503Z,70.95
2022-09-20T23:25:11.160Z,70.89
2022-09-20T23:28:00.340Z,71.06
2022-09-20T23:30:48.125Z,71.27
2022-09-20T23:33:27.870Z,71.26
2022-09-20T23:36:11.019Z,71.10
2022-09-20T23:39:00.288Z,71.04
2022-09-20T23:41:51.243Z,71.07
2022-09-20T23:44:40.268Z,71.13
2022-09-20T23:47:28.177Z,71.11
2022-09-20T23:50:18.116Z,71.19
2022-09-20T23:53:08.487Z,71.16
2022-09-20T23:55:48.633Z,71.16
2022-09-20T23:58:39.105Z,71.10
